Time;durP1;ratioP1;P1;durP2;ratioP2;P2;SDS_P1;SDS_P2;PMS_P1;PMS_P2;Temp;Humidity;BMP_temperature;BMP_pressure;BME280_temperature;BME280_humidity;BME280_pressure;Samples;Min_cycle;Max_cycle;Signal;HPM_P1;HPM_P2
2021/01/19 00:01:35;;;;;;;2.50;2.13;;;;;;;-16.14;100.00;100196.69;1794835;80;21545;-77
2021/01/19 00:04:04;;;;;;;15.97;5.77;;;;;;;-16.12;100.00;100191.06;1794711;80;21777;-77
2021/01/19 00:06:32;;;;;;;7.47;5.47;;;;;;;-16.13;100.00;100185.44;1794737;80;21348;-77
2021/01/19 00:09:00;;;;;;;4.57;4.13;;;;;;;-16.15;100.00;100184.14;1794702;80;21355;-77
2021/01/19 00:11:29;;;;;;;8.33;4.90;;;;;;;-16.15;100.00;100184.14;1811650;79;21775;-78
2021/01/19 00:13:57;;;;;;;3.87;3.57;;;;;;;-16.16;100.00;100173.78;1814117;79;21312;-78
2021/01/19 00:16:25;;;;;;;17.77;5.17;;;;;;;-16.15;100.00;100175.08;1792147;79;21250;-77
2021/01/19 00:18:53;;;;;;;14.37;6.40;;;;;;;-16.16;100.00;100174.67;1785866;80;21229;-78
2021/01/19 00:21:22;;;;;;;29.87;8.23;;;;;;;-16.13;100.00;100177.23;1785814;80;21346;-76
2021/01/19 00:23:50;;;;;;;3.43;3.23;;;;;;;-16.10;100.00;100172.50;1785655;80;21380;-77
2021/01/19 00:26:18;;;;;;;7.97;5.60;;;;;;;-16.09;100.00;100175.09;1785984;80;21343;-77
2021/01/19 00:28:46;;;;;;;4.57;3.10;;;;;;;-16.10;100.00;100161.70;1785786;80;21385;-78
2021/01/19 00:31:14;;;;;;;4.80;4.00;;;;;;;-16.07;100.00;100174.65;1785786;80;21632;-79
2021/01/19 00:33:42;;;;;;;11.27;5.07;;;;;;;-16.08;100.00;100174.65;1829031;77;21256;-78
2021/01/19 00:36:10;;;;;;;14.87;5.57;;;;;;;-16.08;100.00;100174.65;1860578;77;21319;-76
2021/01/19 00:38:38;;;;;;;12.77;5.20;;;;;;;-16.15;100.00;100171.63;1860495;77;21305;-77
2021/01/19 00:41:06;;;;;;;5.83;4.17;;;;;;;-16.15;100.00;100171.63;1860446;77;21816;-78
2021/01/19 00:43:35;;;;;;;17.90;5.10;;;;;;;-16.24;100.00;100171.20;1860586;77;21240;-78
2021/01/19 00:46:03;;;;;;;4.27;3.83;;;;;;;-16.32;100.00;100172.92;1860389;77;21345;-78
2021/01/19 00:48:32;;;;;;;7.27;4.97;;;;;;;-16.38;100.00;100175.09;1860397;77;21357;-77
2021/01/19 00:51:01;;;;;;;2.17;2.07;;;;;;;-16.40;100.00;100174.67;1860347;77;21387;-78
2021/01/19 00:53:30;;;;;;;5.63;2.20;;;;;;;-16.44;100.00;100175.95;1860393;77;22165;-79
2021/01/19 00:55:58;;;;;;;6.80;3.37;;;;;;;-16.44;100.00;100175.95;1860382;77;21366;-79
2021/01/19 00:58:26;;;;;;;2.93;2.63;;;;;;;-16.50;100.00;100166.91;1860365;77;21389;-77
2021/01/19 01:00:55;;;;;;;7.87;4.43;;;;;;;-16.50;100.00;100166.91;1831624;76;21419;-77
2021/01/19 01:03:23;;;;;;;9.20;3.77;;;;;;;-16.56;100.00;100168.62;1877508;76;21247;-78
2021/01/19 01:05:51;;;;;;;6.13;3.50;;;;;;;-16.60;100.00;100170.34;1877348;76;22411;-78
2021/01/19 01:08:19;;;;;;;5.83;2.73;;;;;;;-16.60;100.00;100163.88;1877247;76;21258;-79
2021/01/19 01:10:47;;;;;;;6.00;5.30;;;;;;;-16.60;100.00;100163.02;1877355;76;21297;-78
2021/01/19 01:13:16;;;;;;;4.33;3.17;;;;;;;-16.59;100.00;100159.11;1877441;76;21205;-77
2021/01/19 01:15:45;;;;;;;6.60;3.20;;;;;;;-16.60;100.00;100162.58;1871697;76;21294;-77
2021/01/19 01:18:14;;;;;;;3.97;3.37;;;;;;;-16.61;100.00;100159.55;1865731;77;21641;-78
2021/01/19 01:20:43;;;;;;;2.70;2.47;;;;;;;-16.64;100.00;100180.23;1865856;77;21154;-76
2021/01/19 01:23:13;;;;;;;3.87;2.80;;;;;;;-16.64;100.00;100180.23;1866259;77;21344;-78
2021/01/19 01:25:44;;;;;;;10.70;4.17;;;;;;;-16.64;100.00;100178.95;1812237;77;21185;-78
2021/01/19 01:28:12;;;;;;;5.27;3.43;;;;;;;-16.63;100.00;100180.69;1866366;77;21266;-77
2021/01/19 01:30:40;;;;;;;2.07;1.97;;;;;;;-16.58;100.00;100175.52;1866041;77;21945;-78
2021/01/19 01:33:09;;;;;;;5.67;3.77;;;;;;;-16.57;100.00;100179.41;1865884;77;21169;-77
2021/01/19 01:35:37;;;;;;;3.90;3.17;;;;;;;-16.55;100.00;100173.80;1861411;76;21717;-77
2021/01/19 01:38:06;;;;;;;3.30;2.77;;;;;;;-16.54;100.00;100175.51;1842336;78;21228;-77
2021/01/19 01:40:35;;;;;;;13.27;5.37;;;;;;;-16.53;100.00;100179.84;1842651;76;21268;-78
2021/01/19 01:43:13;;;;;;;8.23;4.70;;;;;;;-16.53;100.00;100182.87;1842335;78;22304;-78
2021/01/19 01:45:41;;;;;;;3.07;2.67;;;;;;;-16.53;100.00;100182.87;1841472;78;21289;-77
2021/01/19 01:48:10;;;;;;;2.47;2.30;;;;;;;-16.53;100.00;100193.22;1842501;78;21212;-78
2021/01/19 01:50:39;;;;;;;1.97;1.77;;;;;;;-16.49;100.00;100191.06;1842369;78;21176;-78
2021/01/19 01:53:06;;;;;;;2.07;1.97;;;;;;;-16.50;100.00;100188.91;1842468;78;21210;-78
2021/01/19 01:55:35;;;;;;;4.10;3.77;;;;;;;-16.51;100.00;100193.64;1842405;78;21209;-78
2021/01/19 01:58:03;;;;;;;3.37;2.77;;;;;;;-16.54;100.00;100191.04;1842589;78;21638;-78
2021/01/19 02:00:31;;;;;;;5.13;3.57;;;;;;;-16.61;100.00;100191.89;1842611;78;21244;-77
2021/01/19 02:02:59;;;;;;;2.80;2.53;;;;;;;-16.65;100.00;100199.23;1842383;78;21396;-78
2021/01/19 02:05:27;;;;;;;2.03;1.93;;;;;;;-16.65;100.00;100199.23;1842520;76;21143;-78
2021/01/19 02:08:42;;;;;;;0.90;0.90;;;;;;;-16.67;100.00;100198.38;1842540;77;21641;-78
2021/01/19 02:11:21;;;;;;;4.03;2.93;;;;;;;-16.68;100.00;100199.22;1861705;76;21183;-78
2021/01/19 02:14:38;;;;;;;7.67;4.50;;;;;;;-16.72;100.00;100193.17;1868714;75;21379;-77
2021/01/19 02:17:33;;;;;;;1.57;1.47;;;;;;;-16.72;100.00;100200.09;1832183;78;21140;-78
2021/01/19 02:20:52;;;;;;;2.87;2.47;;;;;;;-16.75;100.00;100197.48;1828383;78;21225;-77
2021/01/19 02:23:41;;;;;;;3.27;3.03;;;;;;;-16.71;100.00;100196.21;1837930;78;21289;-77
2021/01/19 02:27:03;;;;;;;2.93;2.50;;;;;;;-16.65;100.00;100201.38;1770771;80;21305;-78
2021/01/19 02:30:07;;;;;;;6.07;5.03;;;;;;;-16.60;100.00;100201.40;1736434;82;21287;-78
2021/01/19 02:33:04;;;;;;;2.33;2.23;;;;;;;-16.57;100.00;100192.77;1736566;82;21373;-77
2021/01/19 02:35:55;;;;;;;2.00;1.90;;;;;;;-16.57;100.00;100188.47;1736712;82;21360;-78
2021/01/19 02:38:38;;;;;;;4.17;2.23;;;;;;;-16.52;100.00;100189.75;1853225;77;22598;-78
2021/01/19 02:41:07;;;;;;;1.67;1.57;;;;;;;-16.56;100.00;100194.50;1827792;78;20978;-78
2021/01/19 02:43:35;;;;;;;10.27;2.37;;;;;;;-16.54;100.00;100193.63;1828573;78;21559;-79
2021/01/19 02:46:03;;;;;;;4.03;3.10;;;;;;;-16.55;100.00;100194.51;1828270;78;21301;-78
2021/01/19 02:48:31;;;;;;;2.90;2.57;;;;;;;-16.56;100.00;100191.47;1828283;78;21138;-77
2021/01/19 02:50:59;;;;;;;5.37;4.87;;;;;;;-16.58;100.00;100196.23;1828635;78;21167;-78
2021/01/19 02:53:28;;;;;;;8.80;3.53;;;;;;;-16.64;100.00;100199.23;1828422;78;21548;-78
2021/01/19 02:55:56;;;;;;;4.43;3.17;;;;;;;-16.69;100.00;100193.63;1798945;78;21279;-76
2021/01/19 02:58:47;;;;;;;5.67;2.87;;;;;;;-16.66;100.00;100193.61;1828584;78;21251;-79
2021/01/19 03:01:22;;;;;;;4.05;2.47;;;;;;;-16.63;100.00;100196.21;1766368;80;21280;-77
2021/01/19 03:03:50;;;;;;;4.10;3.13;;;;;;;-16.57;100.00;100194.94;1755301;79;20949;-78
2021/01/19 03:06:19;;;;;;;7.50;4.50;;;;;;;-16.54;100.00;100198.80;1755247;81;21285;-77
2021/01/19 03:08:48;;;;;;;3.73;2.17;;;;;;;-16.54;100.00;100203.98;1755325;81;21370;-77
2021/01/19 03:11:18;;;;;;;3.03;2.40;;;;;;;-16.50;100.00;100202.26;1727325;82;21452;-79
2021/01/19 03:13:48;;;;;;;6.17;3.20;;;;;;;-16.48;100.00;100206.59;1695874;84;21340;-77
2021/01/19 03:16:25;;;;;;;2.13;1.87;;;;;;;-16.37;100.00;100206.60;1790334;77;22769;-78
2021/01/19 03:18:53;;;;;;;2.63;2.43;;;;;;;-16.44;100.00;100197.95;1706846;84;20930;-78
2021/01/19 03:21:21;;;;;;;2.87;2.63;;;;;;;-16.45;100.00;100201.84;1704219;84;21751;-78
2021/01/19 03:23:49;;;;;;;6.43;3.73;;;;;;;-16.37;100.00;100202.72;1755044;81;21323;-78
2021/01/19 03:26:17;;;;;;;5.23;3.70;;;;;;;-16.37;100.00;100202.72;1755144;81;21293;-77
2021/01/19 03:28:45;;;;;;;5.60;3.80;;;;;;;-16.36;100.00;100204.87;1706385;82;21819;-77
2021/01/19 03:31:13;;;;;;;6.70;4.90;;;;;;;-16.32;100.00;100208.77;1704151;84;21305;-78
2021/01/19 03:33:41;;;;;;;7.33;4.30;;;;;;;-16.32;100.00;100208.77;1754766;81;21380;-77
2021/01/19 03:36:10;;;;;;;2.83;2.13;;;;;;;-16.32;100.00;100207.88;1754895;81;21353;-77
2021/01/19 03:38:38;;;;;;;3.57;3.23;;;;;;;-16.26;100.00;100216.96;1706692;84;21301;-77
2021/01/19 03:41:06;;;;;;;2.37;2.27;;;;;;;-16.25;100.00;100214.81;1704109;84;21408;-78
2021/01/19 03:43:34;;;;;;;4.63;3.40;;;;;;;-16.22;100.00;100225.16;1706695;84;21339;-77
2021/01/19 03:46:02;;;;;;;2.20;2.00;;;;;;;-16.22;100.00;100225.16;1704064;84;21910;-79
2021/01/19 03:48:30;;;;;;;4.80;3.20;;;;;;;-16.23;100.00;100223.85;1755154;81;21277;-78
2021/01/19 03:50:58;;;;;;;3.47;3.03;;;;;;;-16.21;100.00;100231.22;1755017;81;21339;-78
2021/01/19 03:53:28;;;;;;;2.73;2.50;;;;;;;-16.21;100.00;100231.22;1755390;81;21386;-78
2021/01/19 03:55:56;;;;;;;6.70;4.40;;;;;;;-16.19;100.00;100232.93;1755274;81;21858;-78
2021/01/19 03:58:23;;;;;;;10.07;5.20;;;;;;;-16.18;100.00;100234.67;1754985;81;21626;-78
2021/01/19 04:00:52;;;;;;;3.83;3.03;;;;;;;-16.17;100.00;100236.82;1706594;84;21388;-77
2021/01/19 04:03:20;;;;;;;3.30;3.00;;;;;;;-16.17;100.00;100231.64;1704079;84;21395;-78
2021/01/19 04:05:48;;;;;;;5.30;3.53;;;;;;;-16.14;100.00;100235.53;1755041;81;21324;-78
2021/01/19 04:08:16;;;;;;;6.97;4.27;;;;;;;-16.08;100.00;100225.16;1755301;81;21332;-77
2021/01/19 04:13:16;;;;;;;8.67;4.77;;;;;;;-16.05;100.00;100225.17;1677078;85;21480;-79
2021/01/19 04:15:47;;;;;;;5.87;2.87;;;;;;;-16.06;100.00;100228.20;1671303;85;21522;-77
2021/01/19 04:18:15;;;;;;;8.67;4.63;;;;;;;-16.15;100.00;100232.06;1671712;86;21342;-77
2021/01/19 04:20:43;;;;;;;3.93;2.67;;;;;;;-16.15;100.00;100232.06;1669420;86;21518;-78
2021/01/19 04:23:28;;;;;;;7.03;4.30;;;;;;;-16.09;100.00;100230.78;1824291;77;22797;-78
2021/01/19 04:25:56;;;;;;;6.10;4.00;;;;;;;-16.13;100.00;100230.33;1729335;83;20973;-78
2021/01/19 04:28:24;;;;;;;3.53;3.20;;;;;;;-16.13;100.00;100229.03;1807610;79;21820;-80
2021/01/19 04:30:52;;;;;;;2.97;2.03;;;;;;;-16.11;100.00;100227.74;1807953;79;21273;-78
2021/01/19 04:33:21;;;;;;;4.97;3.03;;;;;;;-16.05;100.00;100240.71;1807904;79;21726;-76
2021/01/19 04:35:49;;;;;;;4.67;2.57;;;;;;;-16.05;100.00;100240.71;1807677;79;21241;-77
2021/01/19 04:38:17;;;;;;;5.13;4.00;;;;;;;-16.01;100.00;100242.42;1729456;83;21396;-78
2021/01/19 04:40:45;;;;;;;3.20;2.97;;;;;;;-15.97;100.00;100238.96;1808224;79;21774;-78
2021/01/19 04:43:15;;;;;;;2.13;2.03;;;;;;;-15.93;100.00;100232.94;1729101;83;21294;-79
2021/01/19 04:45:44;;;;;;;3.77;2.37;;;;;;;-15.91;100.00;100227.76;1808068;79;21193;-77
2021/01/19 04:48:12;;;;;;;5.33;4.83;;;;;;;-15.88;100.00;100219.95;1808332;79;21297;-79
2021/01/19 04:50:42;;;;;;;8.50;5.20;;;;;;;-15.88;100.00;100219.95;1808109;79;21256;-78
2021/01/19 04:53:12;;;;;;;2.57;2.37;;;;;;;-15.83;100.00;100227.73;1777429;79;21396;-79
2021/01/19 04:55:46;;;;;;;4.03;3.23;;;;;;;-15.82;100.00;100230.33;1777900;79;21476;-77
2021/01/19 04:58:23;;;;;;;2.57;2.37;;;;;;;-15.74;100.00;100237.64;1848069;76;22699;-77
2021/01/19 05:01:06;;;;;;;7.67;4.50;;;;;;;-15.76;100.00;100241.12;1817609;77;20925;-77
2021/01/19 05:03:42;;;;;;;3.40;3.10;;;;;;;-15.75;100.00;100240.27;1768307;80;21653;-76
2021/01/19 05:06:35;;;;;;;5.53;4.97;;;;;;;-15.73;100.00;100241.95;1708351;81;21117;-78
2021/01/19 05:09:10;;;;;;;10.10;5.83;;;;;;;-15.73;100.00;100245.83;1708139;84;21335;-79
2021/01/19 05:11:52;;;;;;;6.07;4.33;;;;;;;-15.73;100.00;100244.98;1707944;84;21433;-77
2021/01/19 05:14:22;;;;;;;7.10;2.93;;;;;;;-15.72;100.00;100241.50;1708092;84;21404;-80
2021/01/19 05:16:50;;;;;;;5.00;4.20;;;;;;;-15.67;100.00;100238.47;1717877;83;21814;-77
2021/01/19 05:19:22;;;;;;;3.90;3.23;;;;;;;-15.67;100.00;100238.47;1718488;83;21407;-77
2021/01/19 05:21:53;;;;;;;5.30;3.98;;;;;;;-15.68;100.00;100241.51;1718261;83;21389;-77
2021/01/19 05:24:21;;;;;;;5.37;3.43;;;;;;;-15.58;100.00;100235.00;1718505;83;20953;-76
2021/01/19 05:26:50;;;;;;;5.67;3.30;;;;;;;-15.58;100.00;100235.00;1718276;83;21427;-78
2021/01/19 05:29:18;;;;;;;10.13;4.93;;;;;;;-15.51;100.00;100239.31;1718236;83;21499;-77
2021/01/19 05:31:51;;;;;;;5.10;4.00;;;;;;;-15.49;100.00;100244.05;1718264;83;21412;-77
2021/01/19 05:34:20;;;;;;;6.83;3.77;;;;;;;-15.49;100.00;100244.05;1718638;83;21900;-78
2021/01/19 05:36:50;;;;;;;10.77;5.47;;;;;;;-15.48;100.00;100247.95;1694700;83;21381;-76
2021/01/19 05:39:19;;;;;;;13.37;4.90;;;;;;;-15.47;100.00;100244.94;1718800;83;21426;-78
2021/01/19 05:41:55;;;;;;;5.47;2.87;;;;;;;-15.39;100.00;100240.58;1718358;83;21574;-77
2021/01/19 05:44:29;;;;;;;7.93;4.53;;;;;;;-15.39;100.00;100240.58;1718679;83;21475;-77
2021/01/19 05:47:02;;;;;;;7.17;4.40;;;;;;;-15.37;100.00;100246.62;1718343;82;21535;-80
2021/01/19 05:49:41;;;;;;;10.70;3.63;;;;;;;-15.38;100.00;100247.50;1718457;83;21436;-77
2021/01/19 05:52:14;;;;;;;12.57;4.53;;;;;;;-15.33;100.00;100252.25;1718482;83;21965;-77
2021/01/19 05:54:45;;;;;;;8.37;4.00;;;;;;;-15.31;100.00;100254.84;1718485;83;22474;-76
2021/01/19 05:57:16;;;;;;;3.30;3.03;;;;;;;-15.32;100.00;100268.66;1718220;82;21448;-77
2021/01/19 05:59:54;;;;;;;4.27;2.53;;;;;;;-15.29;100.00;100263.48;1718705;83;21659;-80
2021/01/19 06:02:38;;;;;;;5.57;3.87;;;;;;;-15.27;100.00;100266.07;1749747;79;21513;-78
2021/01/19 06:05:12;;;;;;;5.37;3.90;;;;;;;-15.24;100.00;100272.11;1784493;80;21330;-77
2021/01/19 06:07:45;;;;;;;2.33;1.97;;;;;;;-15.20;100.00;100267.34;1785472;79;21419;-77
2021/01/19 06:10:17;;;;;;;10.00;5.77;;;;;;;-15.16;100.00;100270.78;1765646;79;21386;-78
2021/01/19 06:12:45;;;;;;;9.93;4.73;;;;;;;-15.16;100.00;100270.78;1817233;79;21406;-78
2021/01/19 06:15:14;;;;;;;5.07;3.27;;;;;;;-15.12;100.00;100278.56;1815869;78;21441;-69
2021/01/19 06:17:46;;;;;;;3.30;2.53;;;;;;;-15.12;100.00;100278.56;1814777;79;21658;-76
2021/01/19 06:20:16;;;;;;;5.87;3.17;;;;;;;-15.08;100.00;100278.13;1669102;84;21639;-78
2021/01/19 06:22:46;;;;;;;3.40;2.87;;;;;;;-15.06;100.00;100273.78;1668884;86;21661;-74
2021/01/19 06:25:15;;;;;;;9.23;6.00;;;;;;;-15.05;100.00;100271.60;1671710;85;21477;-77
2021/01/19 06:27:43;;;;;;;8.77;5.70;;;;;;;-14.97;100.00;100276.78;1669591;85;21488;-74
2021/01/19 06:30:13;;;;;;;7.47;5.77;;;;;;;-14.97;100.00;100276.78;1670601;85;21631;-72
2021/01/19 06:32:50;;;;;;;9.37;4.37;;;;;;;-14.91;100.00;100282.82;1669565;85;22446;-71
2021/01/19 06:35:21;;;;;;;4.63;4.13;;;;;;;-14.86;100.00;100280.19;1671898;85;21790;-70
2021/01/19 06:37:56;;;;;;;5.27;4.17;;;;;;;-14.72;100.00;100277.09;1672305;84;21630;-71
2021/01/19 06:40:25;;;;;;;10.03;5.50;;;;;;;-14.72;100.00;100277.09;1676765;85;22201;-71
2021/01/19 06:43:04;;;;;;;17.33;9.23;;;;;;;-14.63;100.00;100268.40;1685423;85;21841;-72
2021/01/19 06:45:33;;;;;;;15.50;10.07;;;;;;;-14.58;100.00;100264.49;1685200;85;21525;-70
2021/01/19 06:48:02;;;;;;;10.13;6.83;;;;;;;-14.56;100.00;100263.56;1685158;85;21809;-70
2021/01/19 06:50:38;;;;;;;7.63;4.87;;;;;;;-14.52;100.00;100267.89;1685242;85;21650;-73
2021/01/19 06:53:23;;;;;;;9.83;6.53;;;;;;;-14.42;100.00;100271.28;1685530;85;22254;-73
2021/01/19 06:56:12;;;;;;;5.07;4.20;;;;;;;-14.36;100.00;100266.07;1685071;85;21645;-75
2021/01/19 06:58:55;;;;;;;2.80;2.60;;;;;;;-14.28;100.00;100263.86;1685108;83;22110;-72
2021/01/19 07:01:25;;;;;;;8.23;5.55;;;;;;;-14.28;100.00;100263.86;1685239;85;22372;-72
2021/01/19 07:04:14;;;;;;;7.80;5.70;;;;;;;-14.16;100.00;100268.97;1675964;85;21224;-72
2021/01/19 07:07:10;;;;;;;12.30;7.13;;;;;;;-13.95;100.00;100269.22;1647091;86;21738;-70
2021/01/19 07:10:04;;;;;;;30.30;11.57;;;;;;;-13.95;100.00;100269.22;1666910;85;21704;-77
2021/01/19 07:12:59;;;;;;;12.13;6.53;;;;;;;-13.85;100.00;100268.28;1668954;86;21802;-77
2021/01/19 07:15:58;;;;;;;10.60;5.70;;;;;;;-13.71;100.00;100269.47;1670093;86;21881;-80
2021/01/19 07:19:08;;;;;;;13.53;4.53;;;;;;;-13.58;100.00;100268.50;1670180;86;21734;-79
2021/01/19 07:21:57;;;;;;;4.47;4.00;;;;;;;-13.54;100.00;100271.05;1670425;86;21739;-80
2021/01/19 07:26:56;;;;;;;5.53;4.20;;;;;;;-13.35;100.00;100260.03;1734334;81;21797;-79
2021/01/19 07:29:25;;;;;;;7.67;6.20;;;;;;;-13.24;100.00;100268.55;1725106;81;22370;-77
2021/01/19 07:31:54;;;;;;;10.83;6.63;;;;;;;-13.13;100.00;100272.36;1726417;83;21912;-78
2021/01/19 07:34:22;;;;;;;8.67;6.17;;;;;;;-13.08;100.00;100268.83;1726396;83;21815;-79
2021/01/19 07:36:58;;;;;;;7.87;4.67;;;;;;;-12.94;100.00;100265.19;1814264;77;22757;-79
2021/01/19 07:39:33;;;;;;;6.13;4.30;;;;;;;-12.82;100.00;100265.03;1785695;80;21005;-80
2021/01/19 07:42:15;;;;;;;7.37;4.90;;;;;;;-12.73;100.00;100266.22;1785631;80;21714;-79
2021/01/19 07:44:59;;;;;;;10.13;6.37;;;;;;;-12.54;100.00;100263.39;1785441;80;22155;-77
2021/01/19 07:47:40;;;;;;;;;;;;;;;-12.38;100.00;100267.95;1733622;82;20949;-76
2021/01/19 07:50:15;;;;;;;4.57;3.30;;;;;;;-12.35;100.00;100279.64;1731359;83;20135;-77
2021/01/19 07:52:45;;;;;;;2.77;2.57;;;;;;;-12.31;100.00;100279.56;1731288;83;21729;-76
2021/01/19 07:55:23;;;;;;;13.03;5.67;;;;;;;-12.13;100.00;100285.39;1731047;83;21206;-79
2021/01/19 07:57:54;;;;;;;4.87;3.53;;;;;;;-11.87;100.00;100283.22;1731629;83;21047;-78
2021/01/19 08:00:27;;;;;;;7.23;5.50;;;;;;;-11.82;100.00;100293.59;1731136;83;21043;-77
2021/01/19 08:03:07;;;;;;;8.00;4.40;;;;;;;-11.82;100.00;100293.59;1731723;83;21375;-79
2021/01/19 08:05:37;;;;;;;8.40;4.50;;;;;;;-11.89;100.00;100287.60;1732622;83;20984;-80
2021/01/19 08:08:16;;;;;;;5.00;3.63;;;;;;;-11.89;100.00;100290.21;1732049;81;21352;-78
2021/01/19 08:10:58;;;;;;;7.87;3.40;;;;;;;-11.92;100.00;100282.91;1913272;74;22734;-79
2021/01/19 08:13:26;;;;;;;;;;;;;;;-12.03;100.00;100292.20;1883106;76;20972;-78
2021/01/19 08:16:06;;;;;;;5.47;2.33;;;;;;;-11.98;100.00;100296.06;1879951;75;21699;-79
2021/01/19 08:18:39;;;;;;;7.53;3.73;;;;;;;-11.93;100.00;100292.49;1880966;76;21221;-77
2021/01/19 08:21:08;;;;;;;5.70;3.10;;;;;;;-11.95;100.00;100296.88;1881309;76;25983;-79
2021/01/19 08:23:36;;;;;;;15.83;5.87;;;;;;;-11.99;100.00;100299.09;1894143;75;20968;-78
2021/01/19 08:26:09;;;;;;;13.53;5.57;;;;;;;-11.96;100.00;100295.59;1904171;74;20940;-81
2021/01/19 08:28:44;;;;;;;8.73;4.47;;;;;;;-11.89;100.00;100293.27;1839605;77;21252;-80
2021/01/19 08:31:15;;;;;;;10.30;5.30;;;;;;;-11.92;100.00;100295.50;1839278;78;20955;-80
2021/01/19 08:33:50;;;;;;;12.90;5.97;;;;;;;-11.98;100.00;100297.36;1839193;78;20984;-78
2021/01/19 08:36:15;;;;;;;5.43;3.73;;;;;;;-12.03;100.00;100294.81;1835577;78;21308;-80
2021/01/19 08:38:50;;;;;;;10.93;4.33;;;;;;;-11.98;100.00;100298.22;1838944;78;20995;-81
2021/01/19 08:41:32;;;;;;;7.00;4.40;;;;;;;-11.89;100.00;100290.66;1814250;77;22675;-78
2021/01/19 08:44:02;;;;;;;8.67;3.77;;;;;;;-11.84;100.00;100292.77;1785145;80;20922;-78
2021/01/19 08:46:30;;;;;;;6.97;4.83;;;;;;;-11.67;100.00;100293.78;1785143;79;21334;-77
2021/01/19 08:49:06;;;;;;;4.83;3.43;;;;;;;-11.49;100.00;100284.77;1785258;80;21071;-78
2021/01/19 08:51:48;;;;;;;9.33;5.73;;;;;;;-11.30;100.00;100276.19;1845845;76;22770;-77
2021/01/19 08:54:20;;;;;;;30.50;17.20;;;;;;;-11.07;100.00;100278.37;1816560;77;21008;-78
2021/01/19 08:56:48;;;;;;;8.53;5.60;;;;;;;-10.72;100.00;100276.82;1816509;79;21415;-76
2021/01/19 08:59:17;;;;;;;8.57;4.30;;;;;;;-10.58;100.00;100276.55;1816521;79;21035;-80
2021/01/19 09:01:55;;;;;;;16.87;5.43;;;;;;;-10.66;100.00;100271.45;1823330;78;21447;-78
2021/01/19 09:04:28;;;;;;;14.77;6.60;;;;;;;-10.57;100.00;100271.71;1836220;78;20930;-77
2021/01/19 09:07:08;;;;;;;10.07;6.03;;;;;;;-10.49;100.00;100277.65;1793961;80;21108;-69
2021/01/19 09:09:37;;;;;;;9.23;4.70;;;;;;;-10.45;100.00;100271.45;1790650;80;21212;-69
2021/01/19 09:12:15;;;;;;;16.47;7.10;;;;;;;-10.33;100.00;100271.19;1762471;81;21050;-70
2021/01/19 09:14:53;;;;;;;9.73;4.73;;;;;;;-10.25;100.00;100271.42;1760424;81;21749;-70
2021/01/19 09:17:26;;;;;;;12.97;6.53;;;;;;;-10.16;100.00;100264.70;1762169;79;20975;-69
2021/01/19 09:20:06;;;;;;;10.23;5.77;;;;;;;-9.99;100.00;100266.45;1890281;76;22403;-70
2021/01/19 09:22:45;;;;;;;19.93;8.97;;;;;;;-9.84;100.00;100263.06;1851463;76;22698;-70
2021/01/19 09:25:13;;;;;;;13.00;7.47;;;;;;;-9.79;100.00;100267.31;1782635;80;21575;-70
2021/01/19 09:27:41;;;;;;;8.10;4.60;;;;;;;-9.65;100.00;100270.91;1854893;77;21117;-69
2021/01/19 09:30:13;;;;;;;10.23;4.23;;;;;;;-9.64;100.00;100276.53;1854722;77;21052;-71
2021/01/19 09:32:42;;;;;;;14.10;5.17;;;;;;;-9.74;100.00;100274.61;1740625;81;21065;-71
2021/01/19 09:35:14;;;;;;;7.83;4.97;;;;;;;-9.78;100.00;100271.63;1741295;82;21420;-72
2021/01/19 09:37:42;;;;;;;8.47;5.43;;;;;;;-9.92;100.00;100275.03;1747383;82;21034;-70
2021/01/19 09:40:11;;;;;;;13.30;5.93;;;;;;;-10.04;100.00;100276.62;1747180;82;22183;-70
2021/01/19 09:42:40;;;;;;;7.50;5.10;;;;;;;-10.10;100.00;100276.78;1747348;82;21019;-71
2021/01/19 09:45:10;;;;;;;6.70;4.10;;;;;;;-10.10;100.00;100270.23;1747334;82;21022;-70
2021/01/19 09:47:40;;;;;;;14.47;4.70;;;;;;;-10.12;100.00;100275.05;1746691;82;21051;-73
2021/01/19 09:50:10;;;;;;;6.33;3.63;;;;;;;-10.17;100.00;100278.66;1747240;82;21018;-71
2021/01/19 09:52:46;;;;;;;6.70;4.73;;;;;;;-10.28;100.00;100279.36;1747325;82;21211;-71
2021/01/19 09:55:17;;;;;;;12.37;4.90;;;;;;;-10.35;100.00;100274.74;1744945;82;20987;-69
2021/01/19 09:57:45;;;;;;;7.77;5.47;;;;;;;-10.28;100.00;100278.05;1747410;82;21500;-71
2021/01/19 10:00:14;;;;;;;13.90;6.37;;;;;;;-10.10;100.00;100278.09;1747043;82;20955;-70
2021/01/19 10:02:42;;;;;;;12.97;6.40;;;;;;;-10.00;100.00;100279.59;1747154;82;21086;-70
2021/01/19 10:05:12;;;;;;;11.20;6.37;;;;;;;-9.93;100.00;100267.64;1747339;82;21212;-69
2021/01/19 10:07:40;;;;;;;14.47;6.47;;;;;;;-9.89;100.00;100272.34;1746893;82;21057;-69
2021/01/19 10:10:12;;;;;;;8.20;4.63;;;;;;;-9.92;100.00;100270.64;1697963;82;20987;-67
2021/01/19 10:12:42;;;;;;;15.55;6.28;;;;;;;-10.06;100.00;100273.19;1747441;82;21003;-69
2021/01/19 10:15:18;;;;;;;11.30;6.13;;;;;;;-10.20;100.00;100310.95;1845702;77;22689;-79
2021/01/19 10:17:46;;;;;;;11.83;6.67;;;;;;;-10.44;100.00;100270.57;1782318;80;20934;-80
2021/01/19 10:20:15;;;;;;;9.30;5.83;;;;;;;-10.38;100.00;100273.03;1789208;80;21441;-79
2021/01/19 10:22:46;;;;;;;6.13;4.37;;;;;;;-10.21;100.00;100263.95;1789572;79;20981;-78
2021/01/19 10:25:28;;;;;;;10.53;5.53;;;;;;;-10.28;100.00;100267.59;1789705;79;20938;-77
2021/01/19 10:28:00;;;;;;;15.50;8.93;;;;;;;-10.42;100.00;100271.84;1687343;85;21096;-78
2021/01/19 10:30:34;;;;;;;;;;;;;;;-10.60;100.00;100270.03;1690434;85;21045;-77
2021/01/19 10:33:06;;;;;;;7.50;4.53;;;;;;;-10.70;100.00;100274.58;1687831;85;21222;-81
2021/01/19 10:35:37;;;;;;;4.77;2.90;;;;;;;-10.83;100.00;100270.97;1687799;85;21169;-81
2021/01/19 10:38:09;;;;;;;9.97;5.63;;;;;;;-11.09;100.00;100272.31;1664921;85;21239;-80
2021/01/19 10:40:45;;;;;;;21.83;8.07;;;;;;;-11.14;100.00;100273.70;1689838;84;21089;-79
2021/01/19 10:43:13;;;;;;;16.03;6.33;;;;;;;-11.16;100.00;100270.72;1710054;84;21108;-81
2021/01/19 10:45:43;;;;;;;7.77;4.93;;;;;;;-11.27;100.00;100270.91;1710937;84;21039;-82
2021/01/19 10:48:22;;;;;;;9.53;5.13;;;;;;;-11.46;100.00;100265.16;1710499;84;21035;-79
2021/01/19 10:50:56;;;;;;;12.87;6.60;;;;;;;-11.64;100.00;100263.73;1686270;84;21159;-83
2021/01/19 10:53:41;;;;;;;7.33;4.47;;;;;;;-11.56;100.00;100265.77;1890218;76;22828;-70
2021/01/19 10:56:13;;;;;;;10.00;5.27;;;;;;;-11.53;100.00;100255.71;1856369;77;20919;-69
2021/01/19 10:58:41;;;;;;;7.60;4.07;;;;;;;-11.47;100.00;100259.08;1857291;77;21194;-69
2021/01/19 11:01:09;;;;;;;12.30;5.80;;;;;;;-11.49;100.00;100253.45;1861049;77;21006;-69
2021/01/19 11:03:37;;;;;;;7.53;5.17;;;;;;;-11.52;100.00;100250.47;1860975;77;21046;-70
2021/01/19 11:06:05;;;;;;;7.13;3.63;;;;;;;-11.49;100.00;100247.81;1861138;77;20979;-70
2021/01/19 11:08:33;;;;;;;12.00;5.77;;;;;;;-11.44;100.00;100258.16;1861207;77;21046;-70
2021/01/19 11:11:02;;;;;;;14.57;6.37;;;;;;;-11.38;100.00;100254.56;1861082;77;21249;-70
2021/01/19 11:13:33;;;;;;;14.77;6.63;;;;;;;-11.31;100.00;100254.91;1861002;76;20981;-70
2021/01/19 11:16:01;;;;;;;10.63;5.10;;;;;;;-11.30;100.00;100247.47;1859696;76;20980;-73
2021/01/19 11:18:30;;;;;;;13.43;6.40;;;;;;;-11.27;100.00;100242.20;1858782;77;21016;-68
2021/01/19 11:20:58;;;;;;;10.83;5.40;;;;;;;-11.16;100.00;100248.52;1857966;76;21009;-69
2021/01/19 11:23:26;;;;;;;12.60;5.30;;;;;;;-11.08;100.00;100247.48;1796797;79;21615;-69
2021/01/19 11:25:54;;;;;;;14.20;5.93;;;;;;;-11.18;100.00;100254.22;1820477;78;21005;-72
2021/01/19 11:28:22;;;;;;;6.87;5.07;;;;;;;-11.29;100.00;100250.51;1796836;79;20953;-67
2021/01/19 11:30:51;;;;;;;7.83;3.17;;;;;;;-11.43;100.00;100248.59;1820722;78;21167;-69
2021/01/19 11:33:19;;;;;;;7.10;3.73;;;;;;;-11.55;100.00;100253.58;1820451;78;21025;-70
2021/01/19 11:35:48;;;;;;;12.70;5.13;;;;;;;-11.56;100.00;100255.34;1796771;79;21361;-70
2021/01/19 11:38:17;;;;;;;9.20;5.67;;;;;;;-11.51;100.00;100256.12;1820387;78;20973;-70